Time;durP1;ratioP1;P1;durP2;ratioP2;P2;SDS_P1;SDS_P2;PMS_P1;PMS_P2;Temp;Humidity;BMP_temperature;BMP_pressure;BME280_temperature;BME280_humidity;BME280_pressure;Samples;Min_cycle;Max_cycle;Signal;HPM_P1;HPM_P2
2024/01/05 00:02:22;;;;;;;2.17;1.15;;;4.40;99.90;;;;;;5062920;28;20829;-62
2024/01/05 00:04:50;;;;;;;2.20;0.73;;;4.40;99.90;;;;;;5063487;28;20584;-62
2024/01/05 00:07:16;;;;;;;1.63;1.15;;;4.40;99.90;;;;;;5063014;28;20072;-63
2024/01/05 00:09:41;;;;;;;0.40;0.40;;;4.40;99.90;;;;;;5063156;28;20090;-63
2024/01/05 00:12:07;;;;;;;0.70;0.55;;;4.40;99.90;;;;;;5065268;28;20379;-62
2024/01/05 00:14:32;;;;;;;3.72;1.15;;;4.40;99.90;;;;;;5066031;28;20471;-63
2024/01/05 00:16:59;;;;;;;2.63;1.55;;;4.40;99.90;;;;;;5064829;28;20040;-62
2024/01/05 00:19:25;;;;;;;8.10;0.63;;;4.40;99.90;;;;;;5068394;28;20263;-63
2024/01/05 00:21:51;;;;;;;1.10;0.60;;;4.40;99.90;;;;;;5053202;28;20234;-62
2024/01/05 00:24:16;;;;;;;0.65;0.65;;;4.40;99.90;;;;;;5055506;28;20107;-62
2024/01/05 00:26:43;;;;;;;0.70;0.65;;;4.40;99.90;;;;;;5085346;28;20049;-63
2024/01/05 00:29:08;;;;;;;1.23;0.85;;;4.40;99.90;;;;;;5074290;28;20048;-62
2024/01/05 00:31:34;;;;;;;2.03;0.75;;;4.40;99.90;;;;;;5064567;28;20438;-62
2024/01/05 00:34:00;;;;;;;1.27;1.17;;;4.40;99.90;;;;;;5070044;28;20044;-62
2024/01/05 00:36:26;;;;;;;2.05;1.10;;;4.30;99.90;;;;;;5068771;28;20040;-62
2024/01/05 00:38:51;;;;;;;0.82;0.82;;;4.40;99.90;;;;;;5074665;28;20040;-62
2024/01/05 00:41:17;;;;;;;1.55;0.43;;;4.30;99.90;;;;;;5058777;28;20040;-63
2024/01/05 00:43:43;;;;;;;0.57;0.57;;;4.40;99.90;;;;;;5068848;28;20036;-63
2024/01/05 00:46:08;;;;;;;1.27;0.55;;;4.40;99.90;;;;;;5064990;28;20040;-63
2024/01/05 00:48:34;;;;;;;0.30;0.30;;;4.40;99.90;;;;;;5066875;28;20044;-62
2024/01/05 00:51:00;;;;;;;1.60;0.93;;;4.30;99.90;;;;;;5061839;28;20583;-63
2024/01/05 00:53:26;;;;;;;0.77;0.77;;;4.40;99.90;;;;;;5073481;28;20189;-62
2024/01/05 00:55:51;;;;;;;0.70;0.70;;;4.40;99.90;;;;;;5065177;28;20365;-63
2024/01/05 00:58:17;;;;;;;1.35;0.93;;;4.30;99.90;;;;;;5063652;28;20159;-62
2024/01/05 01:00:42;;;;;;;1.30;1.10;;;4.30;99.90;;;;;;5096411;28;20095;-62
2024/01/05 01:03:08;;;;;;;0.38;0.30;;;4.30;99.90;;;;;;5080463;28;20467;-61
2024/01/05 01:05:33;;;;;;;0.57;0.40;;;4.30;99.90;;;;;;5067016;28;20040;-62
2024/01/05 01:08:00;;;;;;;1.02;1.02;;;4.30;99.90;;;;;;5066516;28;20036;-62
2024/01/05 01:10:25;;;;;;;3.42;1.15;;;4.30;99.90;;;;;;5068688;28;20032;-62
2024/01/05 01:12:51;;;;;;;0.75;0.50;;;4.30;99.90;;;;;;5062027;28;20093;-63
2024/01/05 01:15:17;;;;;;;1.33;0.98;;;4.30;99.90;;;;;;5062161;28;20048;-64
2024/01/05 01:17:42;;;;;;;1.08;0.70;;;4.30;99.90;;;;;;5065426;28;20064;-62
2024/01/05 01:20:08;;;;;;;1.10;1.00;;;4.20;99.90;;;;;;5068981;28;20445;-63
2024/01/05 01:22:34;;;;;;;0.45;0.45;;;4.30;99.90;;;;;;5066579;28;20202;-62
2024/01/05 01:24:59;;;;;;;0.57;0.57;;;4.30;99.90;;;;;;5064707;28;20579;-62
2024/01/05 01:27:25;;;;;;;0.32;0.32;;;4.30;99.90;;;;;;5068325;28;20139;-62
2024/01/05 01:29:51;;;;;;;5.07;1.10;;;4.30;99.90;;;;;;5067657;28;20029;-62
2024/01/05 01:32:16;;;;;;;0.85;0.85;;;4.20;99.90;;;;;;5072609;28;20432;-62
2024/01/05 01:34:42;;;;;;;5.68;1.08;;;4.30;99.90;;;;;;5067672;28;20044;-62
2024/01/05 01:37:07;;;;;;;1.45;0.98;;;4.30;99.90;;;;;;5064370;28;20079;-62
2024/01/05 01:39:33;;;;;;;0.32;0.32;;;4.20;99.90;;;;;;5068229;28;20534;-62
2024/01/05 01:41:59;;;;;;;0.50;0.47;;;4.20;99.90;;;;;;5070312;28;20490;-62
2024/01/05 01:44:25;;;;;;;0.20;0.20;;;4.20;99.90;;;;;;5077415;28;20036;-63
2024/01/05 01:46:53;;;;;;;2.03;1.17;;;4.30;99.90;;;;;;5064159;28;20063;-62
2024/01/05 01:49:19;;;;;;;0.45;0.32;;;4.20;99.90;;;;;;5086255;28;20059;-63
2024/01/05 01:51:46;;;;;;;1.05;0.73;;;4.30;99.90;;;;;;5066104;28;20376;-63
2024/01/05 01:54:12;;;;;;;0.55;0.55;;;4.20;99.90;;;;;;5070796;28;20044;-62
2024/01/05 01:56:38;;;;;;;1.40;0.60;;;4.20;99.90;;;;;;5065745;28;20052;-63
2024/01/05 01:59:05;;;;;;;0.30;0.30;;;4.20;99.90;;;;;;5063607;28;20049;-63
2024/01/05 02:01:33;;;;;;;0.30;0.30;;;4.20;99.90;;;;;;5060872;28;20251;-62
2024/01/05 02:03:59;;;;;;;0.98;0.90;;;4.20;99.90;;;;;;5067176;28;20068;-62
2024/01/05 02:06:24;;;;;;;0.73;0.73;;;4.20;99.90;;;;;;5059508;28;20052;-62
2024/01/05 02:08:51;;;;;;;0.88;0.65;;;4.20;99.90;;;;;;5068406;28;20033;-63
2024/01/05 02:11:17;;;;;;;1.60;0.70;;;4.20;99.90;;;;;;5088552;28;20090;-62
2024/01/05 02:13:43;;;;;;;3.00;0.68;;;4.20;99.90;;;;;;5068394;28;20036;-62
2024/01/05 02:16:09;;;;;;;0.30;0.30;;;4.20;99.90;;;;;;5058939;28;20048;-63
2024/01/05 02:18:35;;;;;;;0.20;0.20;;;4.20;99.90;;;;;;5068282;28;20076;-63
2024/01/05 02:21:03;;;;;;;0.10;0.10;;;4.20;99.90;;;;;;5069768;28;20382;-62
2024/01/05 02:23:29;;;;;;;1.88;0.57;;;4.20;99.90;;;;;;5063237;28;20045;-62
2024/01/05 02:25:55;;;;;;;1.45;0.50;;;4.20;99.90;;;;;;5065610;28;20522;-63
2024/01/05 02:28:21;;;;;;;1.48;0.40;;;4.20;99.90;;;;;;5068356;28;20119;-63
2024/01/05 02:30:48;;;;;;;0.88;0.88;;;4.20;99.90;;;;;;5068773;28;20047;-62
2024/01/05 02:33:14;;;;;;;0.20;0.20;;;4.20;99.90;;;;;;5063462;28;20048;-62
2024/01/05 02:35:39;;;;;;;0.40;0.40;;;4.20;99.90;;;;;;5060707;28;20040;-62
2024/01/05 02:38:06;;;;;;;1.08;0.50;;;4.20;99.90;;;;;;5064479;28;20051;-63
2024/01/05 02:40:31;;;;;;;0.10;0.10;;;4.20;99.90;;;;;;5068839;28;20123;-63
2024/01/05 02:42:57;;;;;;;0.90;0.77;;;4.20;99.90;;;;;;5066163;28;20182;-63
2024/01/05 02:45:24;;;;;;;0.38;0.38;;;4.20;99.90;;;;;;5067174;28;20033;-63
2024/01/05 02:47:52;;;;;;;0.32;0.32;;;4.30;99.90;;;;;;5065760;28;20391;-63
2024/01/05 02:50:19;;;;;;;0.20;0.20;;;4.30;99.90;;;;;;5062376;28;20044;-63
2024/01/05 02:52:45;;;;;;;0.80;0.55;;;4.30;99.90;;;;;;5059072;28;20505;-63
2024/01/05 02:55:11;;;;;;;0.55;0.30;;;4.30;99.90;;;;;;5064764;28;20040;-63
2024/01/05 02:57:37;;;;;;;0.15;0.15;;;4.30;99.90;;;;;;5063138;28;20036;-63
2024/01/05 03:00:04;;;;;;;0.32;0.32;;;4.30;99.90;;;;;;5063905;28;20037;-63
2024/01/05 03:02:30;;;;;;;0.22;0.22;;;4.30;99.90;;;;;;5059937;28;20117;-64
2024/01/05 03:04:56;;;;;;;1.25;1.13;;;4.30;99.90;;;;;;5059055;28;20133;-64
2024/01/05 03:07:22;;;;;;;1.10;0.50;;;4.30;99.90;;;;;;5080967;28;20036;-63
2024/01/05 03:09:47;;;;;;;2.15;1.02;;;4.40;99.90;;;;;;5061031;28;20041;-65
2024/01/05 03:12:13;;;;;;;1.20;1.10;;;4.40;99.90;;;;;;5067716;28;20379;-63
2024/01/05 03:14:38;;;;;;;0.57;0.40;;;4.30;99.90;;;;;;5063010;28;20051;-63
2024/01/05 03:17:04;;;;;;;6.72;0.73;;;4.40;99.90;;;;;;5046344;28;20044;-64
2024/01/05 03:19:30;;;;;;;1.38;0.85;;;4.40;99.90;;;;;;5089025;28;20045;-62
2024/01/05 03:21:55;;;;;;;0.70;0.45;;;4.40;99.90;;;;;;5065546;28;20048;-64
2024/01/05 03:24:21;;;;;;;0.40;0.32;;;4.40;99.90;;;;;;5062312;28;20037;-63
2024/01/05 03:26:46;;;;;;;0.85;0.52;;;4.40;99.90;;;;;;5063480;28;20039;-63
2024/01/05 03:29:12;;;;;;;0.77;0.75;;;4.50;99.90;;;;;;5064785;28;20041;-63
2024/01/05 03:31:38;;;;;;;0.65;0.65;;;4.50;99.90;;;;;;5059145;28;20045;-63
2024/01/05 03:34:04;;;;;;;1.35;0.30;;;4.50;99.90;;;;;;5068119;28;20041;-62
2024/01/05 03:36:29;;;;;;;2.40;0.93;;;4.40;99.90;;;;;;5062599;28;20040;-63
2024/01/05 03:38:55;;;;;;;0.75;0.75;;;4.40;99.90;;;;;;5065644;28;20475;-62
2024/01/05 03:41:21;;;;;;;5.15;0.75;;;4.50;99.90;;;;;;5058924;28;20048;-64
2024/01/05 03:43:47;;;;;;;1.17;0.75;;;4.50;99.90;;;;;;5065997;28;20045;-64
2024/01/05 03:46:12;;;;;;;1.00;0.77;;;4.60;99.90;;;;;;5063320;28;20116;-64
2024/01/05 03:48:39;;;;;;;0.20;0.20;;;4.60;99.90;;;;;;5059661;28;20044;-63
2024/01/05 03:51:05;;;;;;;0.98;0.65;;;4.60;99.90;;;;;;5064150;28;20040;-63
2024/01/05 03:53:30;;;;;;;0.75;0.73;;;4.60;99.90;;;;;;5093589;28;20048;-64
2024/01/05 03:55:59;;;;;;;1.02;0.93;;;4.60;99.90;;;;;;5063135;28;20114;-63
2024/01/05 03:58:25;;;;;;;2.33;1.10;;;4.60;99.90;;;;;;5062247;28;20049;-63
2024/01/05 04:00:51;;;;;;;0.80;0.60;;;4.60;99.90;;;;;;5061645;28;20103;-63
2024/01/05 04:03:19;;;;;;;0.30;0.30;;;4.60;99.90;;;;;;5065992;28;20042;-64
2024/01/05 04:05:45;;;;;;;2.80;0.73;;;4.60;99.90;;;;;;5063977;28;20105;-63
2024/01/05 04:08:11;;;;;;;1.30;0.60;;;4.60;99.90;;;;;;5064663;28;20040;-63
2024/01/05 04:10:37;;;;;;;1.27;1.02;;;4.70;99.90;;;;;;5072081;28;20085;-63
2024/01/05 04:13:03;;;;;;;1.85;0.90;;;4.70;99.90;;;;;;5069745;28;20041;-63
2024/01/05 04:15:30;;;;;;;2.03;0.75;;;4.60;99.90;;;;;;5072411;28;20042;-64
2024/01/05 04:17:56;;;;;;;1.35;0.68;;;4.70;99.90;;;;;;5062726;28;20434;-63
2024/01/05 04:20:21;;;;;;;1.08;0.77;;;4.70;99.90;;;;;;5066691;28;20024;-63
2024/01/05 04:22:47;;;;;;;1.98;1.10;;;4.60;99.90;;;;;;5070046;28;20480;-63
2024/01/05 04:25:13;;;;;;;1.13;0.77;;;4.70;99.90;;;;;;5071291;28;20490;-64
2024/01/05 04:27:39;;;;;;;1.52;1.17;;;4.60;99.90;;;;;;5065353;28;20078;-63
2024/01/05 04:30:05;;;;;;;1.17;0.63;;;4.70;99.90;;;;;;5067357;28;20090;-63
2024/01/05 04:32:31;;;;;;;1.50;0.98;;;4.60;99.90;;;;;;5066091;28;20040;-63
2024/01/05 04:34:56;;;;;;;1.85;0.93;;;4.70;99.90;;;;;;5067285;28;20045;-63
2024/01/05 04:37:22;;;;;;;0.95;0.63;;;4.70;99.90;;;;;;5067046;28;20044;-64
2024/01/05 04:39:47;;;;;;;5.47;1.10;;;4.70;99.90;;;;;;5063151;28;20526;-62
2024/01/05 04:42:14;;;;;;;1.27;1.17;;;4.70;99.90;;;;;;5069475;28;20428;-63
2024/01/05 04:44:40;;;;;;;1.15;1.08;;;4.70;99.90;;;;;;5068714;28;20071;-62
2024/01/05 04:47:06;;;;;;;6.13;1.00;;;4.70;99.90;;;;;;5067032;28;20036;-63
2024/01/05 04:49:33;;;;;;;0.63;0.40;;;4.70;99.90;;;;;;5070831;28;20049;-63
2024/01/05 04:52:00;;;;;;;2.05;0.43;;;4.80;99.90;;;;;;5062351;28;20106;-63
2024/01/05 04:54:25;;;;;;;1.65;0.47;;;4.80;99.90;;;;;;5086668;28;20033;-62
2024/01/05 04:56:51;;;;;;;0.75;0.55;;;4.70;99.90;;;;;;5069708;28;20048;-62
2024/01/05 04:59:17;;;;;;;0.40;0.20;;;4.70;99.90;;;;;;5066933;28;20037;-63
2024/01/05 05:01:42;;;;;;;1.75;0.50;;;4.80;99.90;;;;;;5064626;28;20052;-62
2024/01/05 05:04:08;;;;;;;0.50;0.50;;;4.70;99.90;;;;;;5067327;28;20036;-63
2024/01/05 05:06:33;;;;;;;1.23;1.13;;;4.70;99.90;;;;;;5063482;28;20063;-63
2024/01/05 05:08:59;;;;;;;0.68;0.55;;;4.70;99.90;;;;;;5067994;28;20079;-62
2024/01/05 05:11:24;;;;;;;1.27;0.50;;;4.70;99.90;;;;;;5063566;28;20036;-63
2024/01/05 05:13:50;;;;;;;0.77;0.65;;;4.80;99.90;;;;;;5068715;28;20043;-63
2024/01/05 05:16:15;;;;;;;2.17;0.95;;;4.80;99.90;;;;;;5068455;28;20033;-62
2024/01/05 05:18:41;;;;;;;1.25;0.98;;;4.70;99.90;;;;;;5062102;28;20037;-62
2024/01/05 05:21:07;;;;;;;1.33;1.08;;;4.80;99.90;;;;;;5065726;28;20028;-63
2024/01/05 05:23:33;;;;;;;4.85;1.63;;;4.80;99.90;;;;;;5078027;28;20041;-63
2024/01/05 05:25:58;;;;;;;1.00;0.95;;;4.80;99.90;;;;;;5061131;28;20394;-63
2024/01/05 05:28:25;;;;;;;1.65;1.10;;;4.90;99.90;;;;;;5065278;28;20040;-63
2024/01/05 05:30:50;;;;;;;0.55;0.55;;;4.80;99.90;;;;;;5067629;28;20657;-63
2024/01/05 05:33:16;;;;;;;1.10;1.05;;;4.80;99.90;;;;;;5096871;28;20123;-63
2024/01/05 05:35:41;;;;;;;3.85;1.23;;;4.90;99.90;;;;;;5065303;28;20601;-62
2024/01/05 05:38:07;;;;;;;2.78;1.33;;;4.90;99.90;;;;;;5066251;28;20503;-63
2024/01/05 05:40:32;;;;;;;1.85;1.08;;;4.90;99.90;;;;;;5066817;28;20513;-62
2024/01/05 05:42:58;;;;;;;1.23;1.13;;;4.90;99.90;;;;;;5063003;28;20502;-63
2024/01/05 05:45:24;;;;;;;0.30;0.30;;;4.90;99.90;;;;;;5069407;28;20068;-63
2024/01/05 05:47:51;;;;;;;1.02;0.60;;;5.00;99.90;;;;;;5069773;28;20120;-63
2024/01/05 05:50:17;;;;;;;4.20;1.80;;;4.90;99.90;;;;;;5064603;28;20417;-63
2024/01/05 05:52:43;;;;;;;0.77;0.25;;;5.00;99.90;;;;;;5065147;28;20055;-62
2024/01/05 05:55:12;;;;;;;1.73;1.63;;;5.00;99.90;;;;;;5067643;28;20051;-63
2024/01/05 05:57:41;;;;;;;0.30;0.30;;;5.00;99.90;;;;;;5065181;28;20048;-63
2024/01/05 06:00:08;;;;;;;0.45;0.45;;;5.00;99.90;;;;;;5065863;28;20044;-63
2024/01/05 06:02:33;;;;;;;0.80;0.80;;;5.10;99.90;;;;;;5064860;28;20444;-63
2024/01/05 06:05:00;;;;;;;0.90;0.50;;;5.10;99.90;;;;;;5067254;28;20115;-63
2024/01/05 06:07:25;;;;;;;0.38;0.38;;;5.10;99.90;;;;;;5065252;28;20032;-63
2024/01/05 06:09:51;;;;;;;3.15;1.10;;;5.00;99.90;;;;;;5061630;28;20039;-63
2024/01/05 06:12:17;;;;;;;0.88;0.80;;;5.10;99.90;;;;;;5062205;28;20081;-63
2024/01/05 06:14:44;;;;;;;3.20;0.77;;;5.10;99.90;;;;;;5065859;28;20044;-63
2024/01/05 06:17:09;;;;;;;0.68;0.65;;;5.10;99.90;;;;;;5066455;28;20399;-63
2024/01/05 06:19:35;;;;;;;1.10;0.75;;;5.10;99.90;;;;;;5063659;28;20101;-63
2024/01/05 06:22:01;;;;;;;2.78;1.05;;;5.10;99.90;;;;;;5062006;28;20045;-63
2024/01/05 06:24:27;;;;;;;2.17;1.20;;;5.20;99.90;;;;;;5068316;28;20045;-62
2024/01/05 06:26:52;;;;;;;1.67;0.95;;;5.20;99.90;;;;;;5066749;28;20356;-63
2024/01/05 06:29:18;;;;;;;1.42;0.80;;;5.20;99.90;;;;;;5065965;28;20036;-63
2024/01/05 06:31:43;;;;;;;1.70;1.45;;;5.10;99.90;;;;;;5065106;28;20033;-63
2024/01/05 06:34:09;;;;;;;1.70;1.60;;;5.10;99.90;;;;;;5065523;28;20093;-63
2024/01/05 06:36:34;;;;;;;0.30;0.30;;;5.10;99.90;;;;;;5064869;28;20036;-63
2024/01/05 06:39:00;;;;;;;1.75;1.35;;;5.20;99.90;;;;;;5063600;28;20033;-63
2024/01/05 06:41:26;;;;;;;2.20;0.80;;;5.20;99.90;;;;;;5064677;28;20561;-63
2024/01/05 06:43:51;;;;;;;1.52;1.30;;;5.20;99.90;;;;;;5066532;28;20552;-63
2024/01/05 06:46:17;;;;;;;3.65;1.52;;;5.20;99.90;;;;;;5068765;28;20467;-63
2024/01/05 06:48:43;;;;;;;1.33;1.02;;;5.20;99.90;;;;;;5064928;28;20036;-63
2024/01/05 06:51:08;;;;;;;2.83;0.82;;;5.20;99.90;;;;;;5067669;28;20281;-63
2024/01/05 06:53:34;;;;;;;1.55;0.90;;;5.30;99.90;;;;;;5060555;28;20033;-62
2024/01/05 06:56:00;;;;;;;0.52;0.52;;;5.30;99.90;;;;;;5069146;28;20038;-63
2024/01/05 06:58:27;;;;;;;1.30;1.20;;;5.30;99.90;;;;;;5062861;28;20050;-63
2024/01/05 07:00:53;;;;;;;2.47;0.65;;;5.30;99.90;;;;;;5063617;28;20460;-63
2024/01/05 07:03:18;;;;;;;0.82;0.55;;;5.30;99.90;;;;;;5083837;28;20302;-63
2024/01/05 07:05:44;;;;;;;2.42;1.08;;;5.30;99.90;;;;;;5087125;28;20090;-63
2024/01/05 07:08:10;;;;;;;2.50;1.23;;;5.40;99.90;;;;;;5067880;28;20383;-63
2024/01/05 07:10:35;;;;;;;1.83;1.05;;;5.40;99.90;;;;;;5063334;28;20399;-63
2024/01/05 07:13:01;;;;;;;1.17;0.98;;;5.40;99.90;;;;;;5061356;28;20051;-63
2024/01/05 07:15:26;;;;;;;1.65;1.55;;;5.40;99.90;;;;;;5066768;28;20044;-63
2024/01/05 07:17:52;;;;;;;0.98;0.60;;;5.50;99.90;;;;;;5059766;28;20067;-63
2024/01/05 07:20:17;;;;;;;0.55;0.55;;;5.50;99.90;;;;;;5068461;28;20522;-63
2024/01/05 07:22:43;;;;;;;0.85;0.85;;;5.50;99.90;;;;;;5063579;28;20048;-63
2024/01/05 07:25:11;;;;;;;0.60;0.43;;;5.60;99.90;;;;;;5063141;28;20043;-63
2024/01/05 07:27:37;;;;;;;0.82;0.82;;;5.50;99.90;;;;;;5060974;28;20119;-63
2024/01/05 07:30:04;;;;;;;0.45;0.45;;;5.60;99.90;;;;;;5066870;28;20123;-63
2024/01/05 07:32:30;;;;;;;2.72;2.45;;;5.60;99.90;;;;;;5065148;28;20055;-63
2024/01/05 07:34:55;;;;;;;1.52;0.80;;;5.60;99.90;;;;;;5064003;28;20040;-63
2024/01/05 07:37:22;;;;;;;2.38;1.25;;;5.60;99.90;;;;;;5063384;28;20039;-63
2024/01/05 07:39:47;;;;;;;4.35;0.55;;;5.70;99.90;;;;;;5065395;28;20087;-63
2024/01/05 07:42:13;;;;;;;0.28;0.28;;;5.80;99.90;;;;;;5068896;28;20072;-63
2024/01/05 07:44:39;;;;;;;1.38;0.63;;;5.70;99.90;;;;;;5064189;28;20033;-63
2024/01/05 07:47:04;;;;;;;1.65;1.55;;;5.80;99.90;;;;;;5074676;28;20048;-63
2024/01/05 07:49:30;;;;;;;0.70;0.70;;;5.80;99.90;;;;;;5067722;28;20040;-63
2024/01/05 07:51:56;;;;;;;3.00;0.68;;;5.90;99.90;;;;;;5067736;28;20064;-63
2024/01/05 07:54:21;;;;;;;0.25;0.25;;;5.90;99.90;;;;;;5068687;28;20036;-63
2024/01/05 07:56:47;;;;;;;4.00;0.98;;;5.90;99.90;;;;;;5068841;28;20039;-63
2024/01/05 07:59:15;;;;;;;0.82;0.82;;;5.90;99.90;;;;;;5068800;28;20489;-63
2024/01/05 08:01:41;;;;;;;2.80;0.88;;;6.00;99.90;;;;;;5075346;28;20091;-63
2024/01/05 08:04:07;;;;;;;0.55;0.55;;;5.90;99.90;;;;;;5064933;28;20052;-63
2024/01/05 08:06:33;;;;;;;0.75;0.22;;;5.90;99.90;;;;;;5094986;28;20132;-63
2024/01/05 08:08:59;;;;;;;1.98;1.35;;;6.00;99.90;;;;;;5068608;28;20139;-63
2024/01/05 08:11:24;;;;;;;0.22;0.22;;;6.00;99.90;;;;;;5072689;28;20493;-63
2024/01/05 08:13:51;;;;;;;0.38;0.38;;;6.10;99.90;;;;;;5068022;28;20041;-63
2024/01/05 08:16:17;;;;;;;0.82;0.82;;;6.10;99.90;;;;;;5068449;28;20093;-63
2024/01/05 08:18:43;;;;;;;1.75;0.73;;;6.10;99.90;;;;;;5069376;28;20044;-63
2024/01/05 08:21:09;;;;;;;0.20;0.20;;;6.10;99.90;;;;;;5068528;28;20475;-63
2024/01/05 08:23:36;;;;;;;0.30;0.30;;;6.10;99.90;;;;;;5066197;28;20415;-63
2024/01/05 08:26:06;;;;;;;0.13;0.13;;;6.10;99.90;;;;;;5071202;28;20067;-63
2024/01/05 08:28:31;;;;;;;1.13;0.20;;;6.10;99.90;;;;;;5063345;28;20127;-63
2024/01/05 08:30:58;;;;;;;1.35;0.55;;;6.10;99.90;;;;;;5068649;28;20128;-63
2024/01/05 08:33:23;;;;;;;0.30;0.25;;;6.20;99.90;;;;;;5063106;28;20064;-63
2024/01/05 08:35:49;;;;;;;1.08;0.40;;;6.20;99.90;;;;;;5068998;28;20478;-63
2024/01/05 08:38:14;;;;;;;0.57;0.57;;;6.10;99.90;;;;;;5092468;28;20044;-63
2024/01/05 08:40:40;;;;;;;0.65;0.45;;;6.20;99.90;;;;;;5070529;28;20480;-63
2024/01/05 08:43:06;;;;;;;0.85;0.85;;;6.20;99.90;;;;;;5064729;28;20533;-63
2024/01/05 08:45:33;;;;;;;1.02;1.02;;;6.20;99.90;;;;;;5067832;28;20032;-63
2024/01/05 08:48:00;;;;;;;0.38;0.38;;;6.20;99.90;;;;;;5091837;28;20055;-63
2024/01/05 08:50:25;;;;;;;0.90;0.90;;;6.20;99.90;;;;;;5060186;28;20040;-63
2024/01/05 08:52:51;;;;;;;0.20;0.20;;;6.30;99.90;;;;;;5067004;28;20082;-63
2024/01/05 08:55:20;;;;;;;0.03;0.03;;;6.30;99.90;;;;;;5069174;28;20139;-63
2024/01/05 08:57:47;;;;;;;0.20;0.20;;;6.20;99.90;;;;;;5070009;28;20063;-63
2024/01/05 09:00:13;;;;;;;1.30;0.40;;;6.40;99.90;;;;;;5064352;28;20040;-63
2024/01/05 09:02:38;;;;;;;0.10;0.10;;;6.30;99.90;;;;;;5068896;28;20059;-63
2024/01/05 09:05:05;;;;;;;0.10;0.10;;;6.40;99.90;;;;;;5062654;28;20348;-64
2024/01/05 09:07:32;;;;;;;0.40;0.20;;;6.40;99.90;;;;;;5053919;28;20047;-63
2024/01/05 09:09:57;;;;;;;0.20;0.20;;;6.40;99.90;;;;;;5093912;28;20036;-63
2024/01/05 09:12:23;;;;;;;1.75;0.38;;;6.40;99.90;;;;;;5087006;28;20108;-64
2024/01/05 09:14:48;;;;;;;0.10;0.10;;;6.40;99.90;;;;;;5066503;28;20044;-63
2024/01/05 09:17:14;;;;;;;0.35;0.35;;;6.50;99.90;;;;;;5091419;28;20036;-63
2024/01/05 09:19:39;;;;;;;0.65;0.38;;;6.50;99.90;;;;;;5066835;28;20044;-63
2024/01/05 09:22:07;;;;;;;0.15;0.08;;;6.50;99.90;;;;;;5066128;28;20055;-63
2024/01/05 09:24:33;;;;;;;0.90;0.20;;;6.50;99.90;;;;;;5070959;28;20048;-63
2024/01/05 09:26:58;;;;;;;0.30;0.20;;;6.50;99.90;;;;;;5073254;28;20117;-63
2024/01/05 09:29:24;;;;;;;0.20;0.20;;;6.50;99.90;;;;;;5067654;28;20087;-63
2024/01/05 09:31:51;;;;;;;0.10;0.10;;;6.50;99.90;;;;;;5066931;28;20063;-63
2024/01/05 09:34:17;;;;;;;0.63;0.43;;;6.60;99.90;;;;;;5064298;28;20049;-63
2024/01/05 09:36:43;;;;;;;0.00;0.00;;;6.60;99.90;;;;;;5092775;28;20059;-63
2024/01/05 09:39:11;;;;;;;0.30;0.30;;;6.60;99.90;;;;;;5065588;28;20121;-64
2024/01/05 09:41:36;;;;;;;0.20;0.20;;;6.60;99.90;;;;;;5065291;28;20151;-64
2024/01/05 09:44:03;;;;;;;0.05;0.05;;;6.60;99.90;;;;;;5064071;28;20127;-63
2024/01/05 09:46:29;;;;;;;0.10;0.10;;;6.70;99.90;;;;;;5066348;28;20041;-63
2024/01/05 09:48:58;;;;;;;0.00;0.00;;;6.70;99.90;;;;;;5070315;28;20044;-64
2024/01/05 09:51:28;;;;;;;0.10;0.10;;;6.70;99.90;;;;;;5069655;28;20041;-63
2024/01/05 09:53:53;;;;;;;0.20;0.20;;;6.70;99.90;;;;;;5058262;28;20079;-63
2024/01/05 09:56:21;;;;;;;0.00;0.00;;;6.80;99.90;;;;;;5070608;28;20072;-64
2024/01/05 09:58:50;;;;;;;0.00;0.00;;;6.80;99.90;;;;;;5070333;28;20059;-64
2024/01/05 10:01:23;;;;;;;0.08;0.08;;;6.80;99.90;;;;;;5068441;28;20479;-63
2024/01/05 10:03:54;;;;;;;0.10;0.10;;;6.80;99.90;;;;;;5092366;28;20045;-64
2024/01/05 10:06:20;;;;;;;0.10;0.10;;;6.80;99.90;;;;;;5065806;28;20079;-64
2024/01/05 10:08:46;;;;;;;0.10;0.10;;;6.80;99.90;;;;;;5069191;28;20045;-63
2024/01/05 10:11:31;;;;;;;0.00;0.00;;;6.90;99.90;;;;;;5091578;28;20116;-64
2024/01/05 10:14:02;;;;;;;0.10;0.10;;;6.90;99.90;;;;;;5065572;28;20045;-64
2024/01/05 10:16:37;;;;;;;0.00;0.00;;;6.90;99.90;;;;;;5069925;28;20484;-63
2024/01/05 10:19:16;;;;;;;0.15;0.15;;;6.90;99.90;;;;;;5063703;28;20045;-63
2024/01/05 10:21:46;;;;;;;0.10;0.10;;;6.90;99.90;;;;;;5067098;28;20175;-63
2024/01/05 10:24:24;;;;;;;0.10;0.10;;;7.00;99.90;;;;;;5069631;28;20040;-64
2024/01/05 10:27:07;;;;;;;0.00;0.00;;;6.90;99.90;;;;;;5067520;28;20040;-64
2024/01/05 10:29:36;;;;;;;0.20;0.20;;;7.00;99.90;;;;;;5093040;28;20052;-63
2024/01/05 10:32:21;;;;;;;0.05;0.05;;;7.10;99.90;;;;;;5070038;28;20087;-63
2024/01/05 10:34:49;;;;;;;0.10;0.10;;;7.10;99.90;;;;;;5067926;28;20135;-63
2024/01/05 10:37:16;;;;;;;0.00;0.00;;;7.10;99.90;;;;;;5069637;28;20039;-64
2024/01/05 10:39:46;;;;;;;0.03;0.03;;;7.10;99.90;;;;;;5066154;28;20084;-63
2024/01/05 10:42:21;;;;;;;0.10;0.10;;;7.10;99.90;;;;;;5066543;28;20044;-64
2024/01/05 10:44:58;;;;;;;0.10;0.10;;;7.10;99.90;;;;;;5065287;28;20106;-64
2024/01/05 10:47:31;;;;;;;0.00;0.00;;;7.10;99.90;;;;;;5049041;28;20137;-64
2024/01/05 10:49:58;;;;;;;0.00;0.00;;;7.00;99.90;;;;;;5060924;28;20032;-64
2024/01/05 10:52:33;;;;;;;0.10;0.10;;;7.00;99.90;;;;;;5065849;28;20032;-64
2024/01/05 10:55:03;;;;;;;0.15;0.15;;;6.90;99.90;;;;;;5066112;28;20101;-64
2024/01/05 10:57:29;;;;;;;0.15;0.15;;;6.90;99.90;;;;;;5067730;28;21166;-65
2024/01/05 10:59:56;;;;;;;0.10;0.10;;;6.90;99.90;;;;;;5060627;28;20052;-65
2024/01/05 11:02:34;;;;;;;0.10;0.10;;;6.90;99.90;;;;;;5088644;28;20037;-65
2024/01/05 11:05:07;;;;;;;0.10;0.10;;;6.90;99.90;;;;;;5057602;28;20041;-65
2024/01/05 11:07:34;;;;;;;0.10;0.10;;;6.90;99.90;;;;;;5051493;28;20067;-65
2024/01/05 11:10:25;;;;;;;0.00;0.00;;;6.80;99.90;;;;;;5085078;28;20159;-65
2024/01/05 11:13:09;;;;;;;0.00;0.00;;;6.80;99.90;;;;;;5066879;28;20044;-64
2024/01/05 11:16:07;;;;;;;0.20;0.20;;;6.80;99.90;;;;;;5057104;28;20082;-64
2024/01/05 11:19:01;;;;;;;0.13;0.13;;;6.80;99.90;;;;;;5065199;28;20538;-65
2024/01/05 11:21:40;;;;;;;0.10;0.10;;;6.70;99.90;;;;;;5069049;28;20701;-65
2024/01/05 11:24:07;;;;;;;0.10;0.10;;;6.80;99.90;;;;;;5061513;28;20047;-64
2024/01/05 11:26:41;;;;;;;0.08;0.08;;;6.70;99.90;;;;;;5065007;28;20033;-65
2024/01/05 11:29:12;;;;;;;0.00;0.00;;;6.70;99.90;;;;;;5050287;28;20044;-65
2024/01/05 11:31:47;;;;;;;0.05;0.05;;;6.80;99.90;;;;;;5063273;28;20138;-65
2024/01/05 11:34:34;;;;;;;0.10;0.10;;;6.70;99.90;;;;;;5051731;28;20048;-65
2024/01/05 11:37:04;;;;;;;0.10;0.10;;;6.70;99.90;;;;;;5061780;28;20399;-65
2024/01/05 11:40:00;;;;;;;0.00;0.00;;;6.70;99.90;;;;;;5052632;28;20055;-67
2024/01/05 11:42:28;;;;;;;0.10;0.10;;;6.70;99.90;;;;;;5048771;28;20044;-65
2024/01/05 11:44:56;;;;;;;0.10;0.10;;;6.70;99.90;;;;;;5059471;28;20106;-65
2024/01/05 11:47:44;;;;;;;0.10;0.10;;;6.80;99.90;;;;;;5061229;28;20028;-65
2024/01/05 11:50:26;;;;;;;0.08;0.08;;;6.90;99.90;;;;;;5055387;28;20072;-64
2024/01/05 11:53:28;;;;;;;0.10;0.10;;;6.90;99.90;;;;;;5061554;28;20123;-65
2024/01/05 11:56:03;;;;;;;0.08;0.08;;;6.90;99.90;;;;;;5042160;28;20036;-65
2024/01/05 11:58:33;;;;;;;0.00;0.00;;;6.90;99.90;;;;;;5057181;28;20105;-65
2024/01/05 12:00:59;;;;;;;0.00;0.00;;;7.00;99.90;;;;;;5064528;28;20113;-65
2024/01/05 12:03:26;;;;;;;0.00;0.00;;;7.00;99.90;;;;;;5058418;28;20049;-65
2024/01/05 12:05:54;;;;;;;0.10;0.10;;;7.10;99.90;;;;;;5061950;28;20094;-65
2024/01/05 12:08:21;;;;;;;0.10;0.10;;;7.00;99.90;;;;;;5061594;28;20033;-65
2024/01/05 12:10:53;;;;;;;0.00;0.00;;;6.90;99.90;;;;;;5059600;28;20113;-65
2024/01/05 12:13:26;;;;;;;0.52;0.22;;;7.00;99.90;;;;;;5065889;28;20514;-64
2024/01/05 12:15:56;;;;;;;0.00;0.00;;;7.00;99.90;;;;;;5064663;28;20036;-65
2024/01/05 12:18:26;;;;;;;0.10;0.10;;;7.00;99.90;;;;;;5062142;28;20036;-64
2024/01/05 12:21:13;;;;;;;0.00;0.00;;;7.00;99.90;;;;;;5060906;28;20392;-64
2024/01/05 12:23:38;;;;;;;0.10;0.10;;;7.00;99.90;;;;;;5067000;28;20166;-64
2024/01/05 12:26:06;;;;;;;0.08;0.08;;;7.00;99.90;;;;;;5048172;28;20056;-65
2024/01/05 12:28:36;;;;;;;0.00;0.00;;;7.00;99.90;;;;;;5067724;28;20479;-64
2024/01/05 12:31:04;;;;;;;0.10;0.10;;;7.00;99.90;;;;;;5075016;28;20029;-65
2024/01/05 12:33:31;;;;;;;0.00;0.00;;;7.00;99.90;;;;;;5070098;28;20048;-65
2024/01/05 12:35:57;;;;;;;0.00;0.00;;;7.00;99.90;;;;;;5064789;28;20040;-64
2024/01/05 12:38:28;;;;;;;0.00;0.00;;;7.00;99.90;;;;;;5070617;28;20040;-64
2024/01/05 12:41:14;;;;;;;0.10;0.10;;;7.00;99.90;;;;;;5065751;28;20072;-65
2024/01/05 12:43:45;;;;;;;0.08;0.08;;;7.00;99.90;;;;;;5064049;28;20124;-65
2024/01/05 12:46:11;;;;;;;0.00;0.00;;;6.90;99.90;;;;;;5066499;28;20052;-65
2024/01/05 12:48:37;;;;;;;0.00;0.00;;;6.90;99.90;;;;;;5067116;28;20036;-65
2024/01/05 12:51:07;;;;;;;0.00;0.00;;;6.80;99.90;;;;;;5065390;28;20123;-66
2024/01/05 12:53:33;;;;;;;0.00;0.00;;;6.80;99.90;;;;;;5081560;28;20044;-65
2024/01/05 12:56:25;;;;;;;0.00;0.00;;;6.80;99.90;;;;;;5063405;28;20442;-65
2024/01/05 12:58:50;;;;;;;0.10;0.10;;;6.80;99.90;;;;;;5068893;28;20056;-65
2024/01/05 13:01:18;;;;;;;0.10;0.10;;;6.70;99.90;;;;;;5054109;28;20040;-65